Plymouth Meeting, Pennsylvania
Current Conditions -  °F | °C
As of 6:35 PM on Saturday 22 Nov 2014 (Local Time) from KLOM Reporting Station
Overcast Overcast  
Wind Chill: 39°   Ceiling: 8500
Heat Index: 43°   Visibility: 10mi
Dew Point: 21°   Wind: 7mph
Humidity: 42%   Direction: 220°SW
Pressure: 30.27"   Gusts: NA
Location:  40.1°N, 75.27°W
Report Text: KLOM 222335Z AUTO 22006KT 10SM OVC085 06/M06 A3027 RMK AO1
Loading
Personal Weather Stations






























Interactive Weather Map New forecast layout! Learn more

10-Day Weather Forecast

Advertisements
Track Severe Weather on mobile